createdAt,value
2023-03-15T00:05:08.786Z,3.3
2023-03-15T00:10:46.260Z,3.2
2023-03-15T00:16:08.016Z,3.1
2023-03-15T00:21:45.840Z,3
2023-03-15T00:27:38.740Z,2.9
2023-03-15T00:33:32.140Z,2.9
2023-03-15T00:39:25.341Z,2.9
2023-03-15T00:45:03.149Z,2.9
2023-03-15T00:50:39.291Z,2.9
2023-03-15T01:01:08.861Z,2.9
2023-03-15T01:06:30.987Z,2.8
2023-03-15T01:12:24.414Z,2.8
2023-03-15T01:18:17.195Z,2.8
2023-03-15T01:24:10.128Z,2.8
2023-03-15T01:30:02.841Z,2.8
2023-03-15T01:35:39.407Z,2.8
2023-03-15T01:41:31.754Z,2.8
2023-03-15T01:47:24.811Z,2.7
2023-03-15T01:53:01.407Z,2.7
2023-03-15T01:58:39.048Z,2.6
2023-03-15T02:04:17.017Z,2.5
2023-03-15T02:09:38.543Z,2.4
2023-03-15T02:20:53.947Z,2.3
2023-03-15T02:26:47.008Z,2.1
2023-03-15T02:32:24.452Z,2.1
2023-03-15T02:37:47.359Z,2
2023-03-15T02:43:40.175Z,1.9
2023-03-15T02:49:33.141Z,1.9
2023-03-15T02:55:10.528Z,1.8
2023-03-15T03:00:47.265Z,1.7
2023-03-15T03:06:40.509Z,1.6
2023-03-15T03:12:33.215Z,1.6
2023-03-15T03:17:54.354Z,1.6
2023-03-15T03:23:31.174Z,1.5
2023-03-15T03:29:09.853Z,1.5
2023-03-15T03:35:03.317Z,1.8
2023-03-15T03:40:55.954Z,1.9
2023-03-15T03:46:33.749Z,2
2023-03-15T03:52:26.702Z,1.9
2023-03-15T03:58:04.217Z,2
2023-03-15T04:03:41.970Z,2
2023-03-15T04:09:18.266Z,2
2023-03-15T04:15:11.417Z,2.1
2023-03-15T04:20:49.299Z,2.1
2023-03-15T04:26:25.924Z,2.1
2023-03-15T04:32:18.857Z,2.1
2023-03-15T04:38:12.160Z,2.2
2023-03-15T04:44:03.985Z,2.2
2023-03-15T04:49:25.292Z,2.3
2023-03-15T04:55:18.441Z,2.3
2023-03-15T05:00:40.109Z,2.3
2023-03-15T05:06:35.309Z,2.4
2023-03-15T05:12:32.699Z,2.4
2023-03-15T05:18:08.322Z,2.5
2023-03-15T05:23:45.763Z,2.6
2023-03-15T05:29:39.038Z,2.8
2023-03-15T05:35:16.140Z,2.9
2023-03-15T05:41:08.175Z,3.3
2023-03-15T05:47:01.449Z,3.5
2023-03-15T05:52:53.777Z,3.9
2023-03-15T05:58:48.878Z,4.3
2023-03-15T06:04:27.717Z,4.7
2023-03-15T06:10:04.827Z,5.3
2023-03-15T06:15:42.795Z,7.4
2023-03-15T06:21:38.285Z,12.2
2023-03-15T06:27:30.137Z,15.1
2023-03-15T06:33:24.925Z,16.8
2023-03-15T06:39:17.877Z,18.5
2023-03-15T06:45:11.124Z,18.8
2023-03-15T06:51:19.845Z,19.4
2023-03-15T06:57:13.509Z,21.8
2023-03-15T07:03:07.430Z,26.3
2023-03-15T07:08:44.847Z,29.1
2023-03-15T07:14:38.273Z,33.5
2023-03-15T07:20:39.170Z,36.4
2023-03-15T07:26:47.531Z,38.3
2023-03-15T07:32:25.846Z,39.2
2023-03-15T07:38:21.356Z,38
2023-03-15T07:44:16.101Z,37.8
2023-03-15T07:50:09.972Z,41.2
2023-03-15T07:56:03.088Z,50.1
2023-03-15T08:01:46.408Z,44.8
2023-03-15T08:07:30.785Z,36.3
2023-03-15T08:12:52.021Z,35.8
2023-03-15T08:18:30.419Z,37.4
2023-03-15T08:24:25.079Z,39.3
2023-03-15T08:30:17.933Z,40.9
2023-03-15T08:36:12.212Z,49.4
2023-03-15T08:42:08.011Z,43.4
2023-03-15T08:48:19.073Z,37.9
2023-03-15T08:54:11.495Z,43.7
2023-03-15T09:00:08.575Z,50.6
2023-03-15T09:05:48.701Z,39.1
2023-03-15T09:11:42.367Z,35.1
2023-03-15T09:17:35.373Z,36.5
2023-03-15T09:23:51.183Z,37.9
2023-03-15T09:29:28.065Z,36.4
2023-03-15T09:35:25.805Z,34.3
2023-03-15T09:41:17.707Z,33.3
2023-03-15T09:47:10.203Z,34.8
2023-03-15T09:52:48.028Z,38.1
2023-03-15T09:58:41.651Z,37.4
2023-03-15T10:04:19.742Z,36.3
2023-03-15T10:10:13.509Z,34.1
2023-03-15T10:16:05.975Z,32.1
2023-03-15T10:21:59.367Z,30.8
2023-03-15T10:27:53.187Z,32.4
2023-03-15T10:34:00.665Z,35.1
2023-03-15T10:40:05.748Z,35.4
2023-03-15T10:46:04.783Z,34.2
2023-03-15T10:52:14.678Z,32.1
2023-03-15T10:58:12.451Z,30.9
2023-03-15T11:04:16.587Z,29.8
2023-03-15T11:10:10.927Z,28.3
2023-03-15T11:16:03.824Z,27.1
2023-03-15T11:21:56.828Z,26.3
2023-03-15T11:28:00.597Z,25.5
2023-03-15T11:33:38.224Z,24.9
2023-03-15T11:39:53.700Z,24
2023-03-15T11:45:47.693Z,23.2
2023-03-15T11:51:09.141Z,22.6
2023-03-15T11:57:02.407Z,21.3
2023-03-15T12:02:43.014Z,19.9
2023-03-15T12:08:42.926Z,18.9
2023-03-15T12:14:21.020Z,18.2
2023-03-15T12:20:14.450Z,17.6
2023-03-15T12:25:42.276Z,17.3
2023-03-15T12:31:28.115Z,16.9
2023-03-15T12:37:04.780Z,16.7
2023-03-15T12:42:45.243Z,16.4
2023-03-15T12:48:08.396Z,16.1
2023-03-15T12:53:45.491Z,15.9
2023-03-15T12:59:34.397Z,15.7
2023-03-15T13:05:03.635Z,15.6
2023-03-15T13:11:00.208Z,15.6
2023-03-15T13:16:37.237Z,15.8
2023-03-15T13:22:14.907Z,16.3
2023-03-15T13:27:59.173Z,17.3
2023-03-15T13:33:36.692Z,18.6
2023-03-15T13:39:14.164Z,19.5
2023-03-15T13:44:50.788Z,20.1
2023-03-15T13:50:28.879Z,20.8
2023-03-15T13:56:23.674Z,21.4
2023-03-15T14:02:10.698Z,21.7
2023-03-15T14:07:49.076Z,21.6
2023-03-15T14:13:10.800Z,21
2023-03-15T14:19:04.660Z,20.2
2023-03-15T14:24:42.779Z,19.6
2023-03-15T14:30:20.405Z,18.9
2023-03-15T14:36:13.200Z,18.3
2023-03-15T14:42:06.383Z,17.8
2023-03-15T14:47:55.298Z,17.4
2023-03-15T14:53:48.813Z,16.9
2023-03-15T14:59:43.931Z,16.5
2023-03-15T15:05:36.543Z,16.1
2023-03-15T15:11:28.650Z,15.8
2023-03-15T15:17:55.595Z,15.4
2023-03-15T15:23:58.712Z,15
2023-03-15T15:29:47.934Z,14.7
2023-03-15T15:35:40.707Z,14.3
2023-03-15T15:41:36.389Z,13.8
2023-03-15T15:47:30.517Z,13.3
2023-03-15T15:53:07.168Z,12.9
2023-03-15T15:58:59.684Z,12.4
2023-03-15T16:04:52.731Z,12
2023-03-15T16:10:46.868Z,11.6
2023-03-15T16:16:39.648Z,11.3
2023-03-15T16:22:32.506Z,11
2023-03-15T16:28:24.722Z,10.8
2023-03-15T16:34:28.617Z,10.5
2023-03-15T16:40:06.217Z,10.2
2023-03-15T16:45:43.252Z,9.9
2023-03-15T16:51:36.454Z,9.6
2023-03-15T16:57:49.654Z,9.3
2023-03-15T17:03:45.016Z,9.1
2023-03-15T17:09:37.868Z,8.9
2023-03-15T17:15:30.160Z,8.8
2023-03-15T17:21:23.682Z,8.6
2023-03-15T17:27:18.582Z,8.4
2023-03-15T17:33:27.218Z,8.3
2023-03-15T17:39:04.393Z,8.1
2023-03-15T17:44:41.939Z,7.9
2023-03-15T17:50:03.810Z,7.8
2023-03-15T17:55:42.938Z,7.6
2023-03-15T18:01:41.528Z,7.4
2023-03-15T18:07:52.285Z,7.1
2023-03-15T18:13:48.697Z,6.9
2023-03-15T18:19:41.970Z,6.8
2023-03-15T18:25:34.336Z,6.7
2023-03-15T18:31:27.399Z,6.6
2023-03-15T18:37:05.467Z,6.4
2023-03-15T18:42:42.430Z,6.4
2023-03-15T18:48:48.267Z,6.3
2023-03-15T18:54:35.492Z,6.2
2023-03-15T18:59:59.697Z,6.1
2023-03-15T19:05:22.187Z,6.1
2023-03-15T19:11:00.192Z,6
2023-03-15T19:16:37.421Z,5.9
2023-03-15T19:21:58.796Z,5.9
2023-03-15T19:27:35.561Z,5.8
2023-03-15T19:33:29.228Z,5.8
2023-03-15T19:39:06.700Z,5.8
2023-03-15T19:44:43.926Z,5.7
2023-03-15T19:50:06.326Z,5.7
2023-03-15T19:55:46.449Z,5.6
2023-03-15T20:01:23.671Z,5.6
2023-03-15T20:12:59.160Z,5.6
2023-03-15T20:18:37.679Z,5.6
2023-03-15T20:23:59.748Z,5.6
2023-03-15T20:29:38.012Z,5.6
2023-03-15T20:35:32.771Z,5.6
2023-03-15T20:40:54.958Z,5.6
2023-03-15T20:46:32.960Z,5.5
2023-03-15T20:51:40.063Z,5.4
2023-03-15T20:57:01.891Z,5.2
2023-03-15T21:02:11.085Z,5
2023-03-15T21:07:47.878Z,4.9
2023-03-15T21:13:43.888Z,4.7
2023-03-15T21:19:21.765Z,4.5
2023-03-15T21:24:54.926Z,4.4
2023-03-15T21:30:36.557Z,4.2
2023-03-15T21:36:30.197Z,4.1
2023-03-15T21:42:21.986Z,3.9
2023-03-15T21:47:28.555Z,3.8
2023-03-15T21:52:50.504Z,3.6
2023-03-15T21:58:12.725Z,3.5
2023-03-15T22:03:52.138Z,3.4
2023-03-15T22:09:14.811Z,3.3
2023-03-15T22:15:17.658Z,3.2
2023-03-15T22:20:55.449Z,3.1
2023-03-15T22:26:17.122Z,2.9
2023-03-15T22:31:54.522Z,2.9
2023-03-15T22:37:16.502Z,2.8
2023-03-15T22:42:53.439Z,2.8
2023-03-15T22:48:31.092Z,2.7
2023-03-15T22:54:07.798Z,2.6
2023-03-15T22:59:30.223Z,2.6
2023-03-15T23:05:23.601Z,2.5
2023-03-15T23:11:00.620Z,2.4
2023-03-15T23:21:26.610Z,2.3
2023-03-15T23:26:16.737Z,2.3
2023-03-15T23:31:39.308Z,2.2
2023-03-15T23:37:02.972Z,2.2
2023-03-15T23:42:41.302Z,2.1
2023-03-15T23:48:20.133Z,2.1
2023-03-15T23:54:13.207Z,2.1
2023-03-15T23:59:33.768Z,2
